createdAt,value
2022-09-23T00:02:03.403Z,99001.56
2022-09-23T00:06:08.464Z,99001.09
2022-09-23T00:10:11.299Z,99006.03
2022-09-23T00:14:13.656Z,98998.94
2022-09-23T00:18:15.959Z,99008.38
2022-09-23T00:22:17.926Z,98999.63
2022-09-23T00:26:22.468Z,99003.88
2022-09-23T00:30:24.866Z,99002.31
2022-09-23T00:34:26.973Z,98991.00
2022-09-23T00:38:29.105Z,98994.34
2022-09-23T00:42:52.213Z,98992.38
2022-09-23T00:46:54.254Z,98984.44
2022-09-23T00:50:56.458Z,98987.31
2022-09-23T00:55:02.480Z,98976.88
2022-09-23T00:59:06.971Z,98981.47
2022-09-23T01:03:09.658Z,98977.19
2022-09-23T01:07:12.205Z,98974.09
2022-09-23T01:11:14.929Z,98972.13
2022-09-23T01:15:20.477Z,98974.97
2022-09-23T01:19:57.232Z,98967.72
2022-09-23T01:24:45.194Z,98966.31
2022-09-23T01:29:17.826Z,98969.84
2022-09-23T01:33:23.175Z,98959.16
2022-09-23T01:37:35.966Z,98958.91
2022-09-23T01:41:52.019Z,98957.91
2022-09-23T01:45:58.526Z,98953.69
2022-09-23T01:50:33.490Z,98954.72
2022-09-23T01:54:45.537Z,98950.56
2022-09-23T01:58:50.596Z,98950.00
2022-09-23T02:02:57.773Z,98950.22
2022-09-23T02:07:15.166Z,98942.06
2022-09-23T02:11:18.294Z,98946.31
2022-09-23T02:15:31.241Z,98949.09
2022-09-23T02:19:47.951Z,98944.25
2022-09-23T02:23:55.483Z,98955.63
2022-09-23T02:28:08.927Z,98958.13
2022-09-23T02:32:18.094Z,98959.91
2022-09-23T02:36:30.059Z,98961.56
2022-09-23T02:40:38.856Z,98963.19
2022-09-23T02:44:41.094Z,98954.75
2022-09-23T02:49:11.152Z,98962.66
2022-09-23T02:53:14.077Z,98963.63
2022-09-23T02:57:17.275Z,98955.97
2022-09-23T03:01:39.303Z,98961.84
2022-09-23T03:05:51.399Z,98951.03
2022-09-23T03:10:22.779Z,98955.97
2022-09-23T03:14:49.765Z,98960.69
2022-09-23T03:19:00.923Z,98953.97
2022-09-23T03:23:08.879Z,98953.63
2022-09-23T03:27:17.921Z,98957.09
2022-09-23T03:31:20.136Z,98957.31
2022-09-23T03:35:27.440Z,98953.38
2022-09-23T03:39:43.043Z,98956.84
2022-09-23T03:43:46.049Z,98958.34
2022-09-23T03:47:48.084Z,98961.66
2022-09-23T03:51:50.358Z,98963.19
2022-09-23T03:55:52.401Z,98963.19
2022-09-23T03:59:54.368Z,98962.94
2022-09-23T04:03:56.341Z,98963.25
2022-09-23T04:07:58.324Z,98963.50
2022-09-23T04:12:01.365Z,98960.84
2022-09-23T04:16:03.752Z,98956.41
2022-09-23T04:20:06.559Z,98959.47
2022-09-23T04:24:09.491Z,98962.06
2022-09-23T04:28:11.646Z,98951.94
2022-09-23T04:32:13.755Z,98964.41
2022-09-23T04:36:17.474Z,98953.78
2022-09-23T04:40:19.556Z,98966.16
2022-09-23T04:44:22.153Z,98967.63
2022-09-23T04:48:24.621Z,98967.47
2022-09-23T04:52:27.413Z,98967.34
2022-09-23T04:56:33.793Z,98972.47
2022-09-23T05:00:36.737Z,98974.25
2022-09-23T05:04:39.368Z,98967.94
2022-09-23T05:08:46.646Z,98971.44
2022-09-23T05:12:51.450Z,98957.59
2022-09-23T05:16:55.536Z,98964.59
2022-09-23T05:20:58.481Z,98966.91
2022-09-23T05:25:01.835Z,98958.53
2022-09-23T05:29:04.013Z,98967.41
2022-09-23T05:33:05.927Z,98964.19
2022-09-23T05:37:07.936Z,98974.16
2022-09-23T05:41:12.677Z,98969.16
2022-09-23T05:45:15.341Z,98973.94
2022-09-23T05:49:17.261Z,98960.91
2022-09-23T05:53:19.743Z,98962.03
2022-09-23T05:57:21.731Z,98959.00
2022-09-23T06:01:26.171Z,98957.59
2022-09-23T06:05:28.171Z,98959.78
2022-09-23T06:09:35.554Z,98964.63
2022-09-23T06:13:39.384Z,98967.16
2022-09-23T06:17:41.334Z,98970.97
2022-09-23T06:21:43.274Z,98978.66
2022-09-23T06:25:45.226Z,98978.16
2022-09-23T06:29:47.335Z,98971.97
2022-09-23T06:33:49.971Z,98972.28
2022-09-23T06:37:53.419Z,98963.06
2022-09-23T06:41:55.398Z,98969.84
2022-09-23T06:46:01.751Z,98968.31
2022-09-23T06:50:04.427Z,98969.44
2022-09-23T06:54:06.464Z,98965.22
2022-09-23T06:58:09.092Z,98962.25
2022-09-23T07:02:12.427Z,98958.31
2022-09-23T07:06:14.811Z,98959.34
2022-09-23T07:10:17.023Z,98958.06
2022-09-23T07:14:19.058Z,98963.13
2022-09-23T07:18:24.056Z,98963.63
2022-09-23T07:22:27.076Z,98969.66
2022-09-23T07:26:29.648Z,98962.09
2022-09-23T07:30:31.604Z,98977.16
2022-09-23T07:34:33.540Z,98970.94
2022-09-23T07:38:36.550Z,98980.34
2022-09-23T07:42:40.791Z,98976.47
2022-09-23T07:46:42.925Z,98978.66
2022-09-23T07:50:44.894Z,98982.66
2022-09-23T07:54:47.909Z,98979.47
2022-09-23T07:59:03.794Z,98971.19
2022-09-23T08:03:05.857Z,98961.25
2022-09-23T08:07:09.118Z,98959.16
2022-09-23T08:11:14.431Z,98960.84
2022-09-23T08:15:17.743Z,98969.31
2022-09-23T08:19:20.301Z,98968.59
2022-09-23T08:23:22.785Z,98972.16
2022-09-23T08:27:25.090Z,98958.31
2022-09-23T08:31:27.585Z,98961.41
2022-09-23T08:35:29.614Z,98975.78
2022-09-23T08:39:31.556Z,98975.91
2022-09-23T08:43:36.357Z,98983.00
2022-09-23T08:47:53.049Z,98980.34
2022-09-23T08:51:56.222Z,98973.09
2022-09-23T08:55:59.679Z,98976.59
2022-09-23T09:00:02.998Z,98972.75
2022-09-23T09:04:49.644Z,98969.13
2022-09-23T09:08:57.125Z,98969.06
2022-09-23T09:13:10.813Z,98959.78
2022-09-23T09:17:35.218Z,98955.19
2022-09-23T09:21:42.606Z,98949.78
2022-09-23T09:25:49.388Z,98951.41
2022-09-23T09:29:54.652Z,98951.44
2022-09-23T09:34:06.562Z,98950.06
2022-09-23T09:38:08.869Z,98942.88
2022-09-23T09:42:20.274Z,98942.31
2022-09-23T09:46:50.411Z,98936.72
2022-09-23T09:50:53.822Z,98948.44
2022-09-23T09:55:27.104Z,98953.00
2022-09-23T09:59:29.943Z,98954.13
2022-09-23T10:03:38.030Z,98949.34
2022-09-23T10:07:40.003Z,98948.63
2022-09-23T10:11:42.270Z,98943.34
2022-09-23T10:15:45.477Z,98950.50
2022-09-23T10:19:50.806Z,98933.75
2022-09-23T10:23:58.315Z,98940.09
2022-09-23T10:28:50.325Z,98936.97
2022-09-23T10:32:55.041Z,98932.59
2022-09-23T10:37:27.897Z,98928.56
2022-09-23T10:41:57.340Z,98917.53
2022-09-23T10:46:24.591Z,98925.69
2022-09-23T10:50:39.667Z,98918.28
2022-09-23T10:55:02.812Z,98916.50
2022-09-23T10:59:35.579Z,98908.59
2022-09-23T11:03:58.534Z,98911.47
2022-09-23T11:08:31.668Z,98899.00
2022-09-23T11:13:11.344Z,98901.69
2022-09-23T11:17:41.196Z,98895.28
2022-09-23T11:21:58.378Z,98895.56
2022-09-23T11:26:20.171Z,98888.34
2022-09-23T11:30:22.241Z,98888.09
2022-09-23T11:34:43.152Z,98892.78
2022-09-23T11:38:48.967Z,98889.78
2022-09-23T11:42:58.125Z,98871.19
2022-09-23T11:47:07.713Z,98867.06
2022-09-23T11:51:32.496Z,98865.78
2022-09-23T11:55:57.873Z,98865.63
2022-09-23T12:00:04.609Z,98856.91
2022-09-23T12:04:21.346Z,98860.22
2022-09-23T12:08:30.872Z,98855.63
2022-09-23T12:12:55.383Z,98844.50
2022-09-23T12:16:58.243Z,98834.63
2022-09-23T12:21:45.698Z,98838.44
2022-09-23T12:25:46.776Z,98827.00
2022-09-23T12:29:54.756Z,98826.34
2022-09-23T12:33:59.374Z,98821.41
2022-09-23T12:38:04.466Z,98815.63
2022-09-23T12:42:30.752Z,98815.63
2022-09-23T12:46:33.131Z,98819.16
2022-09-23T12:51:02.908Z,98808.00
2022-09-23T12:55:26.476Z,98810.06
2022-09-23T12:59:31.200Z,98801.56
2022-09-23T13:04:11.494Z,98798.03
2022-09-23T13:08:18.595Z,98795.44
2022-09-23T13:12:34.691Z,98784.84
2022-09-23T13:16:43.781Z,98785.56
2022-09-23T13:20:47.152Z,98777.16
2022-09-23T13:25:01.460Z,98775.16
2022-09-23T13:29:04.645Z,98772.16
2022-09-23T13:33:14.263Z,98769.59
2022-09-23T13:37:22.875Z,98757.47
2022-09-23T13:41:28.880Z,98759.13
2022-09-23T13:45:32.375Z,98752.91
2022-09-23T13:49:36.585Z,98748.06
2022-09-23T13:53:38.771Z,98751.06
2022-09-23T13:57:40.862Z,98744.25
2022-09-23T14:01:43.431Z,98738.78
2022-09-23T14:05:46.280Z,98731.44
2022-09-23T14:09:51.254Z,98726.97
2022-09-23T14:13:55.052Z,98725.91
2022-09-23T14:18:06.620Z,98731.66
2022-09-23T14:22:25.662Z,98716.50
2022-09-23T14:26:27.591Z,98716.56
2022-09-23T14:30:30.738Z,98720.59
2022-09-23T14:35:01.014Z,98721.78
2022-09-23T14:39:05.480Z,98718.75
2022-09-23T14:43:25.242Z,98710.81
2022-09-23T14:47:27.526Z,98706.59
2022-09-23T14:51:37.641Z,98697.88
2022-09-23T14:55:40.842Z,98696.28
2022-09-23T14:59:51.584Z,98692.75
2022-09-23T15:03:55.691Z,98696.59
2022-09-23T15:08:00.772Z,98691.91
2022-09-23T15:12:07.063Z,98685.69
2022-09-23T15:16:09.425Z,98689.13
2022-09-23T15:20:23.012Z,98686.31
2022-09-23T15:24:37.692Z,98687.72
2022-09-23T15:28:39.907Z,98687.13
2022-09-23T15:32:42.786Z,98694.63
2022-09-23T15:36:45.060Z,98689.97
2022-09-23T15:40:47.586Z,98690.56
2022-09-23T15:44:50.395Z,98692.41
2022-09-23T15:49:00.154Z,98688.19
2022-09-23T15:53:02.211Z,98688.88
2022-09-23T15:57:04.259Z,98689.31
2022-09-23T16:01:06.670Z,98697.13
2022-09-23T16:05:23.634Z,98693.00
2022-09-23T16:09:28.290Z,98698.56
2022-09-23T16:13:30.438Z,98688.75
2022-09-23T16:17:32.429Z,98690.94
2022-09-23T16:21:34.651Z,98692.13
2022-09-23T16:25:37.560Z,98696.25
2022-09-23T16:29:39.547Z,98698.94
2022-09-23T16:33:51.812Z,98695.91
2022-09-23T16:37:59.732Z,98692.91
2022-09-23T16:42:02.199Z,98693.81
2022-09-23T16:46:04.435Z,98701.09
2022-09-23T16:50:06.809Z,98696.66
2022-09-23T16:54:12.951Z,98703.25
2022-09-23T16:58:15.092Z,98694.16
2022-09-23T17:02:35.769Z,98699.34
2022-09-23T17:06:50.283Z,98703.06
2022-09-23T17:10:58.705Z,98704.59
2022-09-23T17:15:03.943Z,98702.63
2022-09-23T17:19:08.513Z,98705.03
2022-09-23T17:23:10.488Z,98699.16
2022-09-23T17:27:12.548Z,98704.28
2022-09-23T17:31:14.802Z,98697.00
2022-09-23T17:35:17.466Z,98699.84
2022-09-23T17:39:19.602Z,98697.59
2022-09-23T17:43:25.925Z,98702.22
2022-09-23T17:47:27.905Z,98701.66
2022-09-23T17:51:30.562Z,98705.81
2022-09-23T17:55:32.687Z,98708.19
2022-09-23T17:59:34.796Z,98704.66
2022-09-23T18:03:37.047Z,98700.59
2022-09-23T18:07:39.555Z,98700.69
2022-09-23T18:11:45.055Z,98702.72
2022-09-23T18:15:47.118Z,98707.13
2022-09-23T18:19:49.687Z,98707.56
2022-09-23T18:23:51.984Z,98712.06
2022-09-23T18:27:54.105Z,98711.31
2022-09-23T18:32:16.777Z,98709.88
2022-09-23T18:36:25.650Z,98715.91
2022-09-23T18:40:27.611Z,98713.31
2022-09-23T18:44:29.558Z,98710.13
2022-09-23T18:48:51.502Z,98713.66
2022-09-23T18:52:53.363Z,98716.16
2022-09-23T18:56:56.595Z,98718.28
2022-09-23T19:01:07.161Z,98725.63
2022-09-23T19:05:09.331Z,98724.31
2022-09-23T19:09:12.267Z,98733.94
2022-09-23T19:13:14.336Z,98743.00
2022-09-23T19:17:16.804Z,98761.19
2022-09-23T19:21:21.843Z,98756.63
2022-09-23T19:25:23.962Z,98760.38
2022-09-23T19:29:27.312Z,98764.66
2022-09-23T19:33:29.338Z,98771.06
2022-09-23T19:37:31.912Z,98781.50
2022-09-23T19:41:35.541Z,98771.88
2022-09-23T19:45:38.521Z,98779.88
2022-09-23T19:49:40.542Z,98779.63
2022-09-23T19:53:43.443Z,98791.38
2022-09-23T19:57:45.805Z,98793.41
2022-09-23T20:01:48.955Z,98793.19
2022-09-23T20:05:57.397Z,98796.56
2022-09-23T20:09:59.759Z,98799.38
2022-09-23T20:14:04.881Z,98804.97
2022-09-23T20:18:07.073Z,98797.22
2022-09-23T20:22:33.103Z,98803.41
2022-09-23T20:27:10.596Z,98811.13
2022-09-23T20:31:13.034Z,98815.78
2022-09-23T20:35:16.433Z,98824.06
2022-09-23T20:39:18.652Z,98821.50
2022-09-23T20:43:20.656Z,98825.19
2022-09-23T20:47:24.326Z,98822.56
2022-09-23T20:51:26.378Z,98813.28
2022-09-23T20:55:29.338Z,98825.25
2022-09-23T20:59:31.410Z,98824.59
2022-09-23T21:03:33.636Z,98828.09
2022-09-23T21:07:35.870Z,98832.00
2022-09-23T21:11:38.553Z,98827.78
2022-09-23T21:15:41.776Z,98828.06
2022-09-23T21:19:43.696Z,98838.53
2022-09-23T21:23:46.699Z,98831.81
2022-09-23T21:27:52.433Z,98850.38
2022-09-23T21:31:54.715Z,98845.22
2022-09-23T21:36:05.949Z,98854.63
2022-09-23T21:40:27.174Z,98870.88
2022-09-23T21:44:29.504Z,98868.63
2022-09-23T21:48:33.767Z,98869.31
2022-09-23T21:52:36.050Z,98870.72
2022-09-23T21:56:38.021Z,98874.75
2022-09-23T22:00:39.988Z,98869.50
2022-09-23T22:04:42.120Z,98875.00
2022-09-23T22:08:44.347Z,98862.31
2022-09-23T22:12:48.542Z,98850.91
2022-09-23T22:16:50.506Z,98858.28
2022-09-23T22:20:54.735Z,98852.38
2022-09-23T22:24:56.818Z,98857.34
2022-09-23T22:29:17.993Z,98856.03
2022-09-23T22:33:19.944Z,98856.25
2022-09-23T22:37:27.803Z,98860.59
2022-09-23T22:41:30.265Z,98866.13
2022-09-23T22:45:32.604Z,98861.81
2022-09-23T22:49:35.281Z,98860.38
2022-09-23T22:53:37.208Z,98863.47
2022-09-23T22:57:39.477Z,98857.03
2022-09-23T23:01:41.970Z,98854.25
2022-09-23T23:05:45.790Z,98852.69
2022-09-23T23:09:49.642Z,98848.25
2022-09-23T23:13:51.601Z,98849.59
2022-09-23T23:17:53.775Z,98850.09
2022-09-23T23:21:55.671Z,98850.41
2022-09-23T23:25:57.759Z,98846.88
2022-09-23T23:29:59.686Z,98851.25
2022-09-23T23:34:01.810Z,98838.88
2022-09-23T23:38:06.116Z,98840.19
2022-09-23T23:42:08.031Z,98841.19
2022-09-23T23:46:10.506Z,98840.13
2022-09-23T23:50:12.532Z,98841.31
2022-09-23T23:54:15.367Z,98848.03
2022-09-23T23:58:18.473Z,98843.28
